createdAt,value
2018-12-09T00:00:42.390Z,990.24
2018-12-09T00:01:42.323Z,990.31
2018-12-09T00:02:42.165Z,990.26
2018-12-09T00:03:42.122Z,990.32
2018-12-09T00:04:42.000Z,990.30
2018-12-09T00:05:42.028Z,990.39
2018-12-09T00:06:41.878Z,990.31
2018-12-09T00:07:41.846Z,990.29
2018-12-09T00:08:41.686Z,990.28
2018-12-09T00:09:41.650Z,990.38
2018-12-09T00:10:41.503Z,990.35
2018-12-09T00:11:41.534Z,990.32
2018-12-09T00:12:41.335Z,990.28
2018-12-09T00:13:41.376Z,990.38
2018-12-09T00:14:41.169Z,990.28
2018-12-09T00:15:41.188Z,990.25
2018-12-09T00:16:40.998Z,990.46
2018-12-09T00:17:41.031Z,990.41
2018-12-09T00:18:40.841Z,990.51
2018-12-09T00:19:40.797Z,990.46
2018-12-09T00:20:40.656Z,990.51
2018-12-09T00:21:40.647Z,990.69
2018-12-09T00:22:40.634Z,990.70
2018-12-09T00:23:40.518Z,990.57
2018-12-09T00:24:40.336Z,990.57
2018-12-09T00:25:40.328Z,990.69
2018-12-09T00:26:40.159Z,990.57
2018-12-09T00:27:40.185Z,990.65
2018-12-09T00:28:39.994Z,990.70
2018-12-09T00:29:40.040Z,990.60
2018-12-09T00:30:39.834Z,990.63
2018-12-09T00:31:39.862Z,990.56
2018-12-09T00:32:39.707Z,990.61
2018-12-09T00:35:21.677Z,990.64
2018-12-09T00:36:21.654Z,990.77
2018-12-09T00:37:21.520Z,990.61
2018-12-09T00:38:21.508Z,990.67
2018-12-09T00:39:21.363Z,990.66
2018-12-09T00:40:21.380Z,990.65
2018-12-09T00:41:21.197Z,990.66
2018-12-09T00:44:03.213Z,990.62
2018-12-09T00:45:03.189Z,990.59
2018-12-09T00:46:03.047Z,990.56
2018-12-09T00:47:02.985Z,990.49
2018-12-09T00:48:02.886Z,990.53
2018-12-09T00:49:02.812Z,990.52
2018-12-09T00:50:02.690Z,990.48
2018-12-09T00:51:02.716Z,990.52
2018-12-09T00:52:02.519Z,990.51
2018-12-09T00:53:02.553Z,990.47
2018-12-09T00:54:02.363Z,990.54
2018-12-09T00:55:02.337Z,990.48
2018-12-09T00:56:02.194Z,990.47
2018-12-09T00:58:44.219Z,990.51
2018-12-09T00:59:44.166Z,990.54
2018-12-09T01:00:44.026Z,990.52
2018-12-09T01:01:44.061Z,990.61
2018-12-09T01:02:43.871Z,990.60
2018-12-09T01:03:43.862Z,990.51
2018-12-09T01:04:43.756Z,990.54
2018-12-09T01:05:43.660Z,990.65
2018-12-09T01:06:43.545Z,990.61
2018-12-09T01:09:25.740Z,990.64
2018-12-09T01:10:25.668Z,990.48
2018-12-09T01:11:25.534Z,990.73
2018-12-09T01:12:25.482Z,990.62
2018-12-09T01:27:14.564Z,990.65
2018-12-09T01:28:14.341Z,990.71
2018-12-09T01:29:14.379Z,990.66
2018-12-09T01:30:14.181Z,990.54
2018-12-09T01:31:14.153Z,990.58
2018-12-09T01:32:14.009Z,990.50
2018-12-09T01:33:14.063Z,990.56
2018-12-09T01:34:13.887Z,990.62
2018-12-09T01:35:13.858Z,990.61
2018-12-09T01:36:13.684Z,990.64
2018-12-09T01:38:55.696Z,990.69
2018-12-09T01:39:55.712Z,990.75
2018-12-09T01:40:55.548Z,990.87
2018-12-09T01:41:55.594Z,991.00
2018-12-09T01:42:55.362Z,990.95
2018-12-09T01:43:55.378Z,990.92
2018-12-09T01:44:55.228Z,990.98
2018-12-09T01:45:55.206Z,991.01
2018-12-09T01:46:55.046Z,991.01
2018-12-09T01:47:55.011Z,990.98
2018-12-09T01:48:54.857Z,991.01
2018-12-09T01:49:55.068Z,991.22
2018-12-09T01:50:54.704Z,991.05
2018-12-09T01:51:54.720Z,991.34
2018-12-09T01:52:54.533Z,991.21
2018-12-09T01:53:54.536Z,991.17
2018-12-09T01:54:54.393Z,991.17
2018-12-09T01:55:54.409Z,991.12
2018-12-09T01:56:54.254Z,991.05
2018-12-09T01:57:54.165Z,991.26
2018-12-09T01:58:54.030Z,991.28
2018-12-09T01:59:54.059Z,991.26
2018-12-09T02:00:53.901Z,991.04
2018-12-09T02:01:53.877Z,991.27
2018-12-09T02:02:53.695Z,991.18
2018-12-09T02:03:53.672Z,991.24
2018-12-09T02:04:53.531Z,991.24
2018-12-09T02:05:53.512Z,991.30
2018-12-09T02:06:53.354Z,991.40
2018-12-09T02:07:53.396Z,991.26
2018-12-09T02:08:53.186Z,991.44
2018-12-09T02:09:53.201Z,991.48
2018-12-09T02:10:53.064Z,991.43
2018-12-09T02:13:35.221Z,991.33
2018-12-09T02:16:21.236Z,991.48
2018-12-09T02:17:21.235Z,991.52
2018-12-09T02:18:21.044Z,991.53
2018-12-09T02:19:21.010Z,991.55
2018-12-09T02:20:20.918Z,991.57
2018-12-09T02:21:20.824Z,991.51
2018-12-09T02:22:20.736Z,991.48
2018-12-09T02:23:20.729Z,991.55
2018-12-09T02:24:20.530Z,991.51
2018-12-09T02:25:20.542Z,991.50
2018-12-09T02:26:20.379Z,991.57
2018-12-09T02:27:20.384Z,991.52
2018-12-09T02:28:20.220Z,991.60
2018-12-09T02:29:20.156Z,991.61
2018-12-09T02:30:20.038Z,991.77
2018-12-09T02:31:20.077Z,991.69
2018-12-09T02:32:19.909Z,991.58
2018-12-09T02:33:19.894Z,991.67
2018-12-09T02:34:19.717Z,991.80
2018-12-09T02:35:19.685Z,991.64
2018-12-09T02:36:19.538Z,991.76
2018-12-09T02:37:19.538Z,991.72
2018-12-09T02:38:19.370Z,991.84
2018-12-09T02:39:19.414Z,991.94
2018-12-09T02:40:19.207Z,992.01
2018-12-09T02:41:19.229Z,991.91
2018-12-09T02:42:19.054Z,991.73
2018-12-09T02:45:01.223Z,991.74
2018-12-09T02:47:43.258Z,991.87
2018-12-09T02:49:40.324Z,991.65
2018-12-09T02:49:43.060Z,991.76
2018-12-09T02:52:25.209Z,991.49
2018-12-09T03:16:11.682Z,991.66
2018-12-09T03:17:11.692Z,991.66
2018-12-09T03:20:50.257Z,991.69
2018-12-09T03:21:50.088Z,991.67
2018-12-09T03:22:50.106Z,991.62
2018-12-09T03:23:49.957Z,991.66
2018-12-09T03:24:49.919Z,991.71
2018-12-09T03:25:49.759Z,991.77
2018-12-09T03:26:49.731Z,991.83
2018-12-09T03:27:49.604Z,991.78
2018-12-09T03:28:49.569Z,991.77
2018-12-09T03:29:49.443Z,991.68
2018-12-09T03:30:49.444Z,991.76
2018-12-09T03:31:49.243Z,991.72
2018-12-09T03:32:49.275Z,991.76
2018-12-09T03:33:49.076Z,991.93
2018-12-09T03:34:49.096Z,992.02
2018-12-09T03:35:48.916Z,991.82
2018-12-09T03:36:48.869Z,991.85
2018-12-09T03:37:48.752Z,991.77
2018-12-09T03:38:48.815Z,991.80
2018-12-09T03:39:48.631Z,991.80
2018-12-09T03:40:48.590Z,991.60
2018-12-09T03:41:48.403Z,991.72
2018-12-09T03:44:30.252Z,991.78
2018-12-09T03:45:31.256Z,991.72
2018-12-09T03:46:30.055Z,991.88
2018-12-09T03:47:29.996Z,991.74
2018-12-09T03:48:29.885Z,991.79
2018-12-09T03:49:29.918Z,991.72
2018-12-09T03:50:29.746Z,991.83
2018-12-09T03:51:29.717Z,991.91
2018-12-09T03:52:29.560Z,991.90
2018-12-09T03:55:11.753Z,991.89
2018-12-09T03:56:11.737Z,991.88
2018-12-09T03:57:11.565Z,991.84
2018-12-09T03:58:11.535Z,991.90
2018-12-09T03:59:11.401Z,991.82
2018-12-09T04:00:11.391Z,991.89
2018-12-09T04:01:11.211Z,991.87
2018-12-09T04:02:13.212Z,991.87
2018-12-09T04:03:11.060Z,991.88
2018-12-09T04:04:11.068Z,992.00
2018-12-09T04:05:10.916Z,992.07
2018-12-09T04:06:10.878Z,991.96
2018-12-09T04:08:35.231Z,991.87
2018-12-09T04:09:35.278Z,992.04
2018-12-09T04:10:35.100Z,992.03
2018-12-09T04:11:35.095Z,991.97
2018-12-09T04:12:34.891Z,992.07
2018-12-09T04:13:34.879Z,992.02
2018-12-09T04:14:34.729Z,992.06
2018-12-09T04:15:34.688Z,992.09
2018-12-09T04:16:34.591Z,992.00
2018-12-09T04:17:34.494Z,992.11
2018-12-09T04:18:34.382Z,992.09
2018-12-09T04:19:34.421Z,992.06
2018-12-09T04:20:34.209Z,992.09
2018-12-09T04:21:34.261Z,992.08
2018-12-09T04:22:34.048Z,992.05
2018-12-09T04:24:33.882Z,992.09
2018-12-09T04:27:15.782Z,992.08
2018-12-09T04:28:15.739Z,992.11
2018-12-09T04:29:15.562Z,992.22
2018-12-09T04:31:57.776Z,992.20
2018-12-09T04:34:39.738Z,992.18
2018-12-09T04:35:39.746Z,992.14
2018-12-09T04:36:39.778Z,992.24
2018-12-09T04:37:39.548Z,992.24
2018-12-09T04:38:39.397Z,992.16
2018-12-09T04:39:39.356Z,992.08
2018-12-09T04:40:39.231Z,992.24
2018-12-09T04:41:41.250Z,992.18
2018-12-09T04:42:39.085Z,992.20
2018-12-09T04:43:39.080Z,992.17
2018-12-09T04:44:38.898Z,992.21
2018-12-09T04:47:20.784Z,992.25
2018-12-09T04:48:20.782Z,992.34
2018-12-09T04:49:20.589Z,992.31
2018-12-09T04:50:20.591Z,992.36
2018-12-09T04:51:20.398Z,992.40
2018-12-09T04:52:21.462Z,992.30
2018-12-09T04:53:20.233Z,992.47
2018-12-09T04:54:20.211Z,992.35
2018-12-09T04:55:20.077Z,992.44
2018-12-09T04:56:20.020Z,992.43
2018-12-09T04:58:44.743Z,992.41
2018-12-09T04:59:44.721Z,992.48
2018-12-09T05:00:44.568Z,992.49
2018-12-09T05:01:44.623Z,992.38
2018-12-09T05:02:44.431Z,992.44
2018-12-09T05:05:26.237Z,992.42
2018-12-09T05:06:28.280Z,992.49
2018-12-09T05:07:26.158Z,992.48
2018-12-09T05:08:26.074Z,992.46
2018-12-09T05:09:25.932Z,992.40
2018-12-09T05:10:25.945Z,992.52
2018-12-09T05:11:25.731Z,992.45
2018-12-09T05:14:07.783Z,992.42
2018-12-09T05:15:07.802Z,992.44
2018-12-09T05:16:07.575Z,992.38
2018-12-09T05:42:33.568Z,992.65
2018-12-09T05:43:33.424Z,992.80
2018-12-09T05:44:33.331Z,992.75
2018-12-09T05:45:33.251Z,992.65
2018-12-09T05:48:15.253Z,992.75
2018-12-09T05:50:57.274Z,992.80
2018-12-09T05:54:21.765Z,992.78
2018-12-09T05:55:21.730Z,992.80
2018-12-09T05:56:21.590Z,992.88
2018-12-09T06:00:14.813Z,993.00
2018-12-09T06:01:14.746Z,992.96
2018-12-09T06:02:14.610Z,992.98
2018-12-09T06:03:14.617Z,992.98
2018-12-09T06:04:14.407Z,993.26
2018-12-09T06:05:14.476Z,992.97
2018-12-09T06:06:14.240Z,993.08
2018-12-09T06:07:14.242Z,993.09
2018-12-09T06:09:38.743Z,993.09
2018-12-09T06:10:38.862Z,993.02
2018-12-09T06:11:38.588Z,992.95
2018-12-09T06:12:38.553Z,993.06
2018-12-09T06:13:38.411Z,993.00
2018-12-09T06:16:41.537Z,993.01
2018-12-09T06:17:41.863Z,992.95
2018-12-09T06:18:41.316Z,993.02
2018-12-09T06:19:41.359Z,992.99
2018-12-09T06:20:41.299Z,992.97
2018-12-09T06:21:41.165Z,993.01
2018-12-09T06:22:40.983Z,993.05
2018-12-09T06:23:40.963Z,993.04
2018-12-09T06:24:40.811Z,993.17
2018-12-09T06:25:40.816Z,993.14
2018-12-09T06:26:40.677Z,993.13
2018-12-09T06:27:40.584Z,993.02
2018-12-09T06:28:40.474Z,993.07
2018-12-09T06:29:40.497Z,993.08
2018-12-09T06:30:40.299Z,993.09
2018-12-09T06:31:40.344Z,993.09
2018-12-09T06:32:40.144Z,993.21
2018-12-09T06:33:40.111Z,993.28
2018-12-09T06:34:39.971Z,993.25
2018-12-09T06:35:39.921Z,993.21
2018-12-09T06:36:39.843Z,993.17
2018-12-09T06:37:39.866Z,993.17
2018-12-09T06:38:39.628Z,993.25
2018-12-09T06:39:39.637Z,993.30
2018-12-09T06:40:39.457Z,993.26
2018-12-09T06:41:39.533Z,993.29
2018-12-09T06:42:39.321Z,993.24
2018-12-09T06:43:39.257Z,993.28
2018-12-09T06:44:39.183Z,993.20
2018-12-09T06:45:39.074Z,993.27
2018-12-09T06:46:39.007Z,993.25
2018-12-09T06:47:39.020Z,993.23
2018-12-09T06:48:38.792Z,993.17
2018-12-09T06:49:38.783Z,993.25
2018-12-09T06:50:38.623Z,993.24
2018-12-09T06:51:38.592Z,993.30
2018-12-09T06:52:38.489Z,993.29
2018-12-09T06:53:38.401Z,993.25
2018-12-09T06:54:38.286Z,993.31
2018-12-09T06:55:38.313Z,993.29
2018-12-09T06:56:38.130Z,993.33
2018-12-09T06:57:38.133Z,993.29
2018-12-09T06:58:37.973Z,993.31
2018-12-09T06:59:37.941Z,993.36
2018-12-09T07:00:37.790Z,993.45
2018-12-09T07:01:37.815Z,993.38
2018-12-09T07:02:37.713Z,993.42
2018-12-09T07:03:37.601Z,993.43
2018-12-09T07:04:37.592Z,993.51
2018-12-09T07:05:37.476Z,993.38
2018-12-09T07:06:37.264Z,993.48
2018-12-09T07:07:37.309Z,993.51
2018-12-09T07:08:37.125Z,993.50
2018-12-09T07:09:37.086Z,993.60
2018-12-09T07:10:36.938Z,993.58
2018-12-09T07:11:36.907Z,993.60
2018-12-09T07:12:36.929Z,993.56
2018-12-09T07:13:36.797Z,993.59
2018-12-09T07:14:36.611Z,993.60
2018-12-09T07:15:36.727Z,993.65
2018-12-09T07:16:36.438Z,993.67
2018-12-09T07:17:36.444Z,993.71
2018-12-09T07:18:36.272Z,993.84
2018-12-09T07:19:36.223Z,993.80
2018-12-09T07:20:36.090Z,993.73
2018-12-09T07:21:36.129Z,993.82
2018-12-09T07:22:35.996Z,993.82
2018-12-09T07:23:36.012Z,993.81
2018-12-09T07:24:35.757Z,993.87
2018-12-09T07:25:35.852Z,993.91
2018-12-09T07:26:35.584Z,993.83
2018-12-09T07:27:36.111Z,993.84
2018-12-09T07:28:35.501Z,993.96
2018-12-09T07:29:35.361Z,993.90
2018-12-09T07:30:35.262Z,993.94
2018-12-09T07:31:35.271Z,994.04
2018-12-09T07:32:35.094Z,994.00
2018-12-09T07:33:35.119Z,993.95
2018-12-09T07:34:34.927Z,994.03
2018-12-09T07:35:34.903Z,994.00
2018-12-09T07:36:34.761Z,994.02
2018-12-09T07:37:34.891Z,994.03
2018-12-09T07:38:34.624Z,994.03
2018-12-09T07:39:34.630Z,994.05
2018-12-09T07:40:34.418Z,994.05
2018-12-09T07:41:34.420Z,994.11
2018-12-09T07:42:34.241Z,994.19
2018-12-09T07:43:34.263Z,994.15
2018-12-09T07:44:34.118Z,994.13
2018-12-09T07:45:34.040Z,994.11
2018-12-09T07:46:33.908Z,994.13
2018-12-09T07:47:34.055Z,994.10
2018-12-09T07:48:33.753Z,994.21
2018-12-09T07:49:33.879Z,994.26
2018-12-09T07:50:33.569Z,994.22
2018-12-09T07:51:33.574Z,994.17
2018-12-09T07:52:33.428Z,994.16
2018-12-09T07:53:33.466Z,994.23
2018-12-09T07:54:33.277Z,994.35
2018-12-09T07:55:33.185Z,994.38
2018-12-09T07:56:33.083Z,994.35
2018-12-09T07:57:33.108Z,994.29
2018-12-09T07:58:32.959Z,994.36
2018-12-09T07:59:34.087Z,994.50
2018-12-09T08:00:32.746Z,994.35
2018-12-09T08:01:32.717Z,994.34
2018-12-09T08:02:32.581Z,994.44
2018-12-09T08:05:08.739Z,994.46
2018-12-09T08:05:10.322Z,994.53
2018-12-09T08:06:09.303Z,994.45
2018-12-09T08:07:09.105Z,994.50
2018-12-09T08:08:09.011Z,994.48
2018-12-09T08:09:08.924Z,994.63
2018-12-09T08:10:09.102Z,994.50
2018-12-09T08:11:08.758Z,994.60
2018-12-09T08:12:08.720Z,994.57
2018-12-09T08:13:08.614Z,994.51
2018-12-09T08:14:08.637Z,994.61
2018-12-09T08:15:08.500Z,994.59
2018-12-09T08:16:08.643Z,994.65
2018-12-09T08:17:08.285Z,994.60
2018-12-09T08:18:08.768Z,994.63
2018-12-09T08:19:08.123Z,994.66
2018-12-09T08:20:08.816Z,994.70
2018-12-09T08:21:09.107Z,994.71
2018-12-09T08:23:49.776Z,994.70
2018-12-09T08:24:49.778Z,994.71
2018-12-09T08:25:49.641Z,994.73
2018-12-09T08:26:49.586Z,994.74
2018-12-09T08:27:49.435Z,994.61
2018-12-09T08:28:49.472Z,994.78
2018-12-09T08:29:49.273Z,994.82
2018-12-09T08:30:49.337Z,994.78
2018-12-09T08:31:49.146Z,994.77
2018-12-09T08:32:49.115Z,994.74
2018-12-09T08:33:48.932Z,994.79
2018-12-09T08:34:48.918Z,994.82
2018-12-09T08:35:48.802Z,994.76
2018-12-09T08:36:48.716Z,994.76
2018-12-09T08:37:48.604Z,994.76
2018-12-09T08:38:48.806Z,994.88
2018-12-09T08:39:48.441Z,994.76
2018-12-09T08:40:49.492Z,994.85
2018-12-09T08:43:12.778Z,994.81
2018-12-09T08:44:12.722Z,994.85
2018-12-09T08:45:12.616Z,994.79
2018-12-09T08:46:12.671Z,994.80
2018-12-09T08:47:12.435Z,994.80
2018-12-09T08:48:12.447Z,994.78
2018-12-09T08:49:12.280Z,994.88
2018-12-09T08:50:12.308Z,994.91
2018-12-09T08:51:12.103Z,994.86
2018-12-09T08:52:12.096Z,994.90
2018-12-09T08:53:11.944Z,994.80
2018-12-09T08:54:11.966Z,994.90
2018-12-09T08:55:11.781Z,994.92
2018-12-09T08:56:14.411Z,995.08
2018-12-09T08:57:11.614Z,994.85
2018-12-09T08:58:11.800Z,994.83
2018-12-09T08:59:11.474Z,994.89
2018-12-09T09:01:53.504Z,994.92
2018-12-09T09:02:53.299Z,994.91
2018-12-09T09:03:53.125Z,994.93
2018-12-09T09:04:53.257Z,994.97
2018-12-09T09:05:52.952Z,994.96
2018-12-09T09:06:53.078Z,994.94
2018-12-09T09:07:52.833Z,994.99
2018-12-09T09:08:52.891Z,995.01
2018-12-09T09:09:52.616Z,994.98
2018-12-09T09:10:52.700Z,994.94
2018-12-09T09:11:52.518Z,995.02
2018-12-09T09:12:52.659Z,995.00
2018-12-09T09:13:52.332Z,994.95
2018-12-09T09:14:52.248Z,995.03
2018-12-09T09:15:52.203Z,995.01
2018-12-09T09:16:52.175Z,995.04
2018-12-09T09:17:52.036Z,995.06
2018-12-09T09:18:51.998Z,995.06
2018-12-09T09:19:51.780Z,995.06
2018-12-09T09:20:51.765Z,995.09
2018-12-09T09:21:51.652Z,995.01
2018-12-09T09:22:51.652Z,995.08
2018-12-09T09:23:51.449Z,995.08
2018-12-09T09:24:51.491Z,995.09
2018-12-09T09:25:51.301Z,995.19
2018-12-09T09:26:51.338Z,995.17
2018-12-09T09:27:51.110Z,995.12
2018-12-09T09:28:51.106Z,995.15
2018-12-09T09:29:51.096Z,995.14
2018-12-09T09:30:50.915Z,995.14
2018-12-09T09:31:50.774Z,995.14
2018-12-09T09:32:50.890Z,995.10
2018-12-09T09:33:50.613Z,995.15
2018-12-09T09:34:50.641Z,995.15
2018-12-09T09:35:50.449Z,995.16
2018-12-09T09:36:50.412Z,995.16
2018-12-09T09:37:50.313Z,995.25
2018-12-09T09:38:50.270Z,995.24
2018-12-09T09:39:50.115Z,995.16
2018-12-09T09:40:50.098Z,995.19
2018-12-09T09:41:49.947Z,995.18
2018-12-09T09:42:49.964Z,995.10
2018-12-09T09:43:49.775Z,995.27
2018-12-09T09:44:49.836Z,995.14
2018-12-09T09:45:49.661Z,995.21
2018-12-09T09:46:49.594Z,995.15
2018-12-09T09:47:49.445Z,995.24
2018-12-09T09:48:49.400Z,995.25
2018-12-09T09:49:49.303Z,995.29
2018-12-09T09:50:49.310Z,995.27
2018-12-09T09:51:49.112Z,995.29
2018-12-09T09:52:49.112Z,995.40
2018-12-09T09:53:48.935Z,995.33
2018-12-09T09:54:48.958Z,995.30
2018-12-09T09:55:48.772Z,995.24
2018-12-09T09:56:48.730Z,995.32
2018-12-09T09:57:48.627Z,995.32
2018-12-09T09:58:49.617Z,995.35
2018-12-09T09:59:48.434Z,995.32
2018-12-09T10:00:48.500Z,995.37
2018-12-09T10:01:48.302Z,995.39
2018-12-09T10:02:48.275Z,995.42
2018-12-09T10:03:48.104Z,995.39
2018-12-09T10:05:18.879Z,995.39
2018-12-09T10:05:47.990Z,995.36
2018-12-09T10:06:47.981Z,995.38
2018-12-09T10:07:47.769Z,995.34
2018-12-09T10:08:47.696Z,995.42
2018-12-09T10:09:47.605Z,995.42
2018-12-09T10:10:47.552Z,995.36
2018-12-09T10:11:47.444Z,995.55
2018-12-09T10:12:47.360Z,995.49
2018-12-09T10:13:47.288Z,995.53
2018-12-09T10:14:47.196Z,995.55
2018-12-09T10:15:47.148Z,995.52
2018-12-09T10:16:47.017Z,995.55
2018-12-09T10:17:46.939Z,995.57
2018-12-09T10:18:46.873Z,995.53
2018-12-09T10:19:46.771Z,995.63
2018-12-09T10:20:46.679Z,995.64
2018-12-09T10:21:46.627Z,995.61
2018-12-09T10:22:46.518Z,995.57
2018-12-09T10:23:46.482Z,995.57
2018-12-09T10:24:46.353Z,995.56
2018-12-09T10:25:46.264Z,995.55
2018-12-09T10:26:46.263Z,995.58
2018-12-09T10:27:46.081Z,995.59
2018-12-09T10:28:46.007Z,995.66
2018-12-09T10:29:45.937Z,995.61
2018-12-09T10:30:45.875Z,995.62
2018-12-09T10:31:45.856Z,995.58
2018-12-09T10:32:45.743Z,995.65
2018-12-09T10:33:45.631Z,995.58
2018-12-09T10:34:45.526Z,995.59
2018-12-09T10:35:45.493Z,995.58
2018-12-09T10:36:45.344Z,995.66
2018-12-09T10:37:45.289Z,995.63
2018-12-09T10:38:45.198Z,995.69
2018-12-09T10:39:45.132Z,995.67
2018-12-09T10:40:45.017Z,995.66
2018-12-09T10:41:44.952Z,995.66
2018-12-09T10:42:44.898Z,995.69
2018-12-09T10:43:44.746Z,995.65
2018-12-09T10:44:44.684Z,995.60
2018-12-09T10:45:44.594Z,995.65
2018-12-09T10:48:26.866Z,995.60
2018-12-09T10:49:26.719Z,995.64
2018-12-09T10:50:26.624Z,995.56
2018-12-09T10:51:26.556Z,995.62
2018-12-09T10:52:26.477Z,995.54
2018-12-09T10:53:27.417Z,995.57
2018-12-09T10:54:26.301Z,995.59
2018-12-09T10:57:08.323Z,995.64
2018-12-09T10:58:09.262Z,995.66
2018-12-09T10:59:08.185Z,995.59
2018-12-09T11:00:08.061Z,995.55
2018-12-09T11:01:07.992Z,995.61
2018-12-09T11:02:07.884Z,995.60
2018-12-09T11:03:07.845Z,995.56
2018-12-09T11:04:07.742Z,995.59
2018-12-09T11:05:07.691Z,995.62
2018-12-09T11:07:49.798Z,995.61
2018-12-09T11:09:11.732Z,995.66
2018-12-09T11:09:49.682Z,995.58
2018-12-09T11:10:49.572Z,995.60
2018-12-09T11:11:49.476Z,995.69
2018-12-09T11:14:31.834Z,995.74
2018-12-09T11:15:31.271Z,995.70
2018-12-09T11:16:31.138Z,995.72
2018-12-09T11:17:31.061Z,995.64
2018-12-09T11:18:31.005Z,995.76
2018-12-09T11:19:31.929Z,995.86
2018-12-09T11:20:30.818Z,995.78
2018-12-09T11:21:31.007Z,995.94
2018-12-09T11:22:30.650Z,995.87
2018-12-09T11:23:30.587Z,996.05
2018-12-09T11:24:30.519Z,996.05
2018-12-09T11:25:30.405Z,996.03
2018-12-09T11:26:30.334Z,996.00
2018-12-09T11:29:12.333Z,995.92
2018-12-09T11:30:12.285Z,995.97
2018-12-09T11:31:12.158Z,995.96
2018-12-09T11:32:12.089Z,995.99
2018-12-09T11:33:11.991Z,996.06
2018-12-09T11:34:11.926Z,996.00
2018-12-09T11:35:11.875Z,996.05
2018-12-09T11:36:11.744Z,996.01
2018-12-09T11:37:11.670Z,995.96
2018-12-09T11:38:11.607Z,995.97
2018-12-09T11:39:11.492Z,996.06
2018-12-09T11:40:11.478Z,996.04
2018-12-09T11:41:11.333Z,995.98
2018-12-09T11:42:11.310Z,995.92
2018-12-09T11:43:11.164Z,995.98
2018-12-09T11:44:11.119Z,996.05
2018-12-09T11:45:11.025Z,996.07
2018-12-09T11:46:10.980Z,996.03
2018-12-09T11:47:10.840Z,996.00
2018-12-09T11:49:52.829Z,996.27
2018-12-09T11:50:52.775Z,996.49
2018-12-09T11:51:52.666Z,996.69
2018-12-09T11:52:52.587Z,996.71
2018-12-09T11:53:52.494Z,996.59
2018-12-09T11:54:52.430Z,996.52
2018-12-09T11:55:52.477Z,996.60
2018-12-09T11:58:34.318Z,996.52
2018-12-09T12:18:30.308Z,996.56
2018-12-09T12:19:30.195Z,996.62
2018-12-09T12:20:30.131Z,996.65
2018-12-09T12:21:30.041Z,996.64
2018-12-09T12:22:29.988Z,996.66
2018-12-09T12:23:29.849Z,996.70
2018-12-09T12:24:29.793Z,996.78
2018-12-09T12:25:29.691Z,996.74
2018-12-09T12:26:29.600Z,996.76
2018-12-09T12:27:29.549Z,996.78
2018-12-09T12:30:11.414Z,996.76
2018-12-09T12:31:11.245Z,996.77
2018-12-09T12:32:11.152Z,996.79
2018-12-09T12:33:11.087Z,996.79
2018-12-09T12:34:11.027Z,996.82
2018-12-09T12:36:52.834Z,996.92
2018-12-09T12:37:52.782Z,996.95
2018-12-09T12:38:52.744Z,997.01
2018-12-09T12:39:52.581Z,997.02
2018-12-09T12:40:52.490Z,997.05
2018-12-09T12:41:52.419Z,997.05
2018-12-09T12:42:52.364Z,997.10
2018-12-09T12:43:53.283Z,997.06
2018-12-09T12:44:52.158Z,997.07
2018-12-09T12:45:52.154Z,997.12
2018-12-09T12:46:51.992Z,997.14
2018-12-09T12:47:51.912Z,997.12
2018-12-09T12:48:51.821Z,997.13
2018-12-09T12:49:51.750Z,997.11
2018-12-09T12:50:51.699Z,997.22
2018-12-09T12:51:51.586Z,997.19
2018-12-09T12:52:51.483Z,997.19
2018-12-09T12:53:52.438Z,997.21
2018-12-09T12:54:51.356Z,997.19
2018-12-09T12:55:51.263Z,997.22
2018-12-09T12:56:51.168Z,997.25
2018-12-09T12:59:33.356Z,997.24
2018-12-09T13:00:33.296Z,997.34
2018-12-09T13:01:33.168Z,997.39
2018-12-09T13:02:33.085Z,997.39
2018-12-09T13:03:32.992Z,997.42
2018-12-09T13:04:32.927Z,997.44
2018-12-09T13:05:32.865Z,997.48
2018-12-09T13:08:14.829Z,997.49
2018-12-09T13:09:14.761Z,997.51
2018-12-09T13:10:14.663Z,997.55
2018-12-09T13:11:14.628Z,997.53
2018-12-09T13:12:14.492Z,997.53
2018-12-09T13:14:56.351Z,997.60
2018-12-09T13:15:56.301Z,997.62
2018-12-09T13:16:56.178Z,997.67
2018-12-09T13:17:56.386Z,997.67
2018-12-09T13:18:56.004Z,997.69
2018-12-09T13:19:55.922Z,997.75
2018-12-09T13:20:55.887Z,997.70
2018-12-09T13:21:55.769Z,997.81
2018-12-09T13:22:55.661Z,997.85
2018-12-09T13:23:55.590Z,997.85
2018-12-09T13:24:55.501Z,997.94
2018-12-09T13:25:56.478Z,997.94
2018-12-09T13:26:55.331Z,997.99
2018-12-09T13:27:55.254Z,997.97
2018-12-09T13:28:55.203Z,998.00
2018-12-09T13:29:55.075Z,998.05
2018-12-09T13:30:55.018Z,998.04
2018-12-09T13:31:55.972Z,998.07
2018-12-09T13:32:54.822Z,998.12
2018-12-09T13:35:36.837Z,998.18
2018-12-09T13:36:36.753Z,998.17
2018-12-09T13:37:36.703Z,998.23
2018-12-09T13:40:18.858Z,998.33
2018-12-09T13:41:18.760Z,998.32
2018-12-09T13:42:18.719Z,998.39
2018-12-09T13:43:18.610Z,998.36
2018-12-09T13:44:18.499Z,998.43
2018-12-09T13:47:00.379Z,998.43
2018-12-09T13:48:00.260Z,998.51
2018-12-09T13:49:00.172Z,998.50
2018-12-09T13:50:00.099Z,998.47
2018-12-09T13:51:00.016Z,998.50
2018-12-09T13:51:59.963Z,998.57
2018-12-09T13:52:59.870Z,998.59
2018-12-09T13:53:59.773Z,998.60
2018-12-09T13:54:59.667Z,998.65
2018-12-09T13:55:59.602Z,998.68
2018-12-09T13:56:59.506Z,998.76
2018-12-09T13:57:59.464Z,998.74
2018-12-09T13:58:59.361Z,998.81
2018-12-09T13:59:59.282Z,998.80
2018-12-09T14:00:59.155Z,998.86
2018-12-09T14:01:59.092Z,998.95
2018-12-09T14:02:59.052Z,998.95
2018-12-09T14:05:41.349Z,999.01
2018-12-09T14:06:41.272Z,999.03
2018-12-09T14:07:41.211Z,999.11
2018-12-09T14:08:41.108Z,999.13
2018-12-09T14:09:41.008Z,999.15
2018-12-09T14:10:40.942Z,999.14
2018-12-09T14:11:40.842Z,999.14
2018-12-09T14:12:42.768Z,999.22
2018-12-09T14:13:40.705Z,999.30
2018-12-09T14:14:40.599Z,999.25
2018-12-09T14:15:40.508Z,999.31
2018-12-09T14:16:40.433Z,999.29
2018-12-09T14:17:40.334Z,999.28
2018-12-09T14:18:40.297Z,999.33
2018-12-09T14:19:40.189Z,999.33
2018-12-09T14:22:22.348Z,999.38
2018-12-09T14:23:22.310Z,999.41
2018-12-09T14:24:22.182Z,999.43
2018-12-09T14:25:22.120Z,999.44
2018-12-09T14:26:22.031Z,999.44
2018-12-09T14:27:23.315Z,999.41
2018-12-09T14:28:21.882Z,999.48
2018-12-09T14:31:03.847Z,999.51
2018-12-09T14:33:45.896Z,999.54
2018-12-09T14:34:45.780Z,999.60
2018-12-09T14:35:45.701Z,999.62
2018-12-09T14:36:45.615Z,999.67
2018-12-09T14:37:45.538Z,999.74
2018-12-09T14:38:46.477Z,999.75
2018-12-09T14:39:45.378Z,999.74
2018-12-09T14:40:45.280Z,999.79
2018-12-09T14:41:45.183Z,999.79
2018-12-09T14:42:45.119Z,999.81
2018-12-09T14:43:45.021Z,999.75
2018-12-09T14:44:45.983Z,999.84
2018-12-09T14:45:49.008Z,999.85
2018-12-09T14:46:44.768Z,999.90
2018-12-09T14:47:44.674Z,999.90
2018-12-09T14:48:44.598Z,999.94
2018-12-09T14:49:44.545Z,999.97
2018-12-09T14:50:44.449Z,1000.05
2018-12-09T14:51:44.334Z,1000.02
2018-12-09T14:54:26.370Z,1000.11
2018-12-09T14:55:26.318Z,1000.17
2018-12-09T14:56:26.218Z,1000.23
2018-12-09T14:57:26.119Z,1000.20
2018-12-09T14:58:26.030Z,1000.19
2018-12-09T14:59:25.945Z,1000.26
2018-12-09T15:00:25.891Z,1000.27
2018-12-09T15:01:25.803Z,1000.32
2018-12-09T15:02:25.681Z,1000.33
2018-12-09T15:03:25.602Z,1000.31
2018-12-09T15:04:25.521Z,1000.40
2018-12-09T15:05:25.493Z,1000.44
2018-12-09T15:06:25.665Z,1000.41
2018-12-09T15:07:25.271Z,1000.45
2018-12-09T15:08:25.184Z,1000.51
2018-12-09T15:09:25.113Z,1000.51
2018-12-09T15:10:25.068Z,1000.51
2018-12-09T15:11:24.940Z,1000.56
2018-12-09T15:12:24.850Z,1000.55
2018-12-09T15:13:24.759Z,1000.56
2018-12-09T15:14:24.721Z,1000.69
2018-12-09T15:15:24.608Z,1000.67
2018-12-09T15:16:24.522Z,1000.71